SBOSBO DUS / EDDL
Speedbird OnlineSpeedbird Online DUS / EDDL

Düsseldorf Airport
07:03 -2.2°C

Location Duesseldorf, Germany
Latitude: 51.289501
Longitude: 6.76678
Web Airport Website | Wikipedia
Altitude 45 Meter / 147 Feet
Distance 460 KM / 286 Miles
from London.
Time Zone UTC +1 hours (Europe/Berlin)
Codes IATA: DUS
ICAO: EDDL
Currency £1 equals EUR 1.14
Runways
RunwayLength (m)Surface
05L2700Concrete
05R3000Concrete
23L3000Concrete
23R2700Concrete
Radio
TypeDescriptionFrequency
ACCLANGEN RADAR128.55
APPDIR128.65
ATISATIS123.78
CLDCLNC DEL121.775
GNDGND121.9
INFOLANGEN INFO129.875
MISCDE ICING135.225
TWRTWR118.3
Live ATC
METAR EDDL 290550Z AUTO 17007KT 8000 BKN031 M03/M04 Q1029 NOSIG
TAF TAF EDDL 290500Z 2906/3012 18005KT 9999 BKN030 BECMG 2909/2912 20010KT BECMG 3000/3003 26015G25KT BKN012 PROB40 TEMPO 3002/3008 4500 -DZRA BKN008 BECMG 3008/3011 BKN030 PROB30 TEMPO 3011/3012 29020G30KT SHRA BKN030TCU
Weather As Of 29 Jan 2023 07:02
Description Broken clouds
Wind 13 km/h from South (170°)
Cloud Cover 75%
Precipitation Rain: none, Snow: none
Sunrise 08:15
Sunset 17:16
Lounges Hugo Junkers Lounge , Terminal B
Open Sky Lounge, Terminal C
Rotations During the last 90 days there were
292 flights from LHR
235 flights from LCY
287 flights to LHR
235 flights to LCY



Support Speedbird Online

© 2017-2023 Speedbird Online